Harrisonville, NJ (08039)

2:20 PM EDT on July 29, 2016 (GMT -0400)
Lincoln Rd, Pilesgrove | | Change Station

Elev 62 ft 39.68 °N, 75.30 °W | Updated 1 minute ago

Mostly Cloudy
Mostly Cloudy
84.5 °F
Feels Like 90 °F
N
6.0
Wind Variable Wind from North
Gusts 11.0 mph

Today
High -- | Low -- °F
--% Chance of Precip.
Yesterday
High -- | Low -- °F
Precip. -- in
Pressure 29.83 in
Visibility 10.0 miles
Clouds Scattered Clouds 3900 ft
Mostly Cloudy 4800 ft
Heat Index 90 °F
Dew Point 72 °F
Humidity 66%
Rainfall 0.97 in
Snow Depth Not available.
5:57 AM 8:16 PM
Waning Crescent, 20% visible
METAR KPHL 291754Z 02007KT 10SM SCT039 BKN048 30/20 A2983 RMK AO2 SLP100 60000 T03000200 10300 20228 58007 $
Pressure 29.83 in
Visibility 10.0 miles
Clouds Scattered Clouds 3900 ft
Mostly Cloudy 4800 ft
Heat Index 90 °F
Dew Point 72 °F
Humidity 66%
Rainfall 0.97 in
Snow Depth Not available.
5:57 AM 8:16 PM
Waning Crescent, 20% visible
METAR KPHL 291754Z 02007KT 10SM SCT039 BKN048 30/20 A2983 RMK AO2 SLP100 60000 T03000200 10300 20228 58007 $

10-Day Weather Forecast

Almanac

Astronomy

Jul. 29, 2016 Rise Set
Actual Time
Civil Twilight
Nautical Twilight
Astronomical Twilight
Moon
Length of Visible Light
Length of Day
Tomorrow will be .
, % of the Moon is Illuminated

Today's Extremes

State Highs State Lows

Community

WunderPhotos

Upload Photos

1,928,391 photos uploaded!

WunderBlog® & News

Nearby

Air Quality

  Air Quality AQ Index Pollutant
Not available.

Snow Depth

Station Depth Elevation

Earthquake Activity

City Distance Mag. Time & Date
Minimum magnitude displayed is 2.5.

Coastal Water Temperatures

Place Temperature

Stations

Nearby Weather Stations

Station Location Temp. Windchill Dew Point Humidity Wind Precip. Elev Updated Type
                   

Watches & Warnings

There are currently no watches in effect.